AirNav   Everest Fuels
 
 595 users online  

78NY Flying F Airport
Pendleton, New York, USA

GOING TO PENDLETON?


FAA INFORMATION EFFECTIVE 10 SEPTEMBER 2020

Location

FAA Identifier: 78NY
Lat/Long: 43-04-53.0000N 078-46-46.0000W
43-04.883333N 078-46.766667W
43.0813889,-78.7794444
(estimated)
Elevation: 580 ft. / 177 m (estimated)
Variation: 10W (1985)
From city: 1 mile S of PENDLETON, NY
Time zone: UTC -4 (UTC -5 during Standard Time)
Zip code: 14120

Airport Operations

Airport use: Private use, PRIVATE.
Activation date: 03/1976
Control tower: no
ARTCC: CLEVELAND CENTER
FSS: BUFFALO FLIGHT SERVICE STATION
Attendance: IREG
Wind indicator: yes
Segmented circle: yes

Airport Communications

WX ASOS at IAG (7 nm W): PHONE 716-297-6984
WX ASOS at BUF (9 nm S): PHONE 716-635-0532

Nearby radio navigation aids

VOR radial/distance  VOR name  Freq  Var
BUFr335/10.8BUFFALO VOR/DME116.4008W

 
NDB name  Hdg/Dist  Freq  Var  ID
KATHI133/3.132910WIA .. .-
KLUMP320/7.423109WBU -... ..-
PLAZZ016/12.620409WGB --. -...

Airport Services

Runway Information

Runway E/W

Dimensions: 3750 x 75 ft. / 1143 x 23 m
Surface: turf/gravel
RUNWAY E  RUNWAY W
Traffic pattern: rightleft

Airport Ownership and Management from official FAA records

Ownership: Privately-owned
Owner: FRANCIS J. FERLAND
7100 CAMPBELL BLVD
NORTH TONOWANDA, NY 14120
Phone (716) 523-8598
Manager: FRANCIS J. FERLAND
7100 CAMPBELL BLVD
NORTH TONOWANDA, NY 14120
Phone 716-695-2231

Airport Operational Statistics

Aircraft based on the field: 4
Single engine airplanes: 2
Multi engine airplanes: 2
    

Additional Remarks

APT CLSD WHEN WIND TEE IS REMOVED.
FOR CD CTC CLEVELAND ARTCC AT 440-774-0490.

Instrument Procedures

There are no published instrument procedures at 78NY.

Some nearby airports with instrument procedures:

KIAG - Niagara Falls International Airport (7 nm W)
KBUF - Buffalo Niagara International Airport (9 nm S)
9G0 - Buffalo Airfield (13 nm S)
9G3 - Akron Airport/Jesson Field (14 nm E)
9G6 - Pine Hill Airport (23 nm E)
 
Loc | Ops | Rwys | IFR | FBO | Links
Com | Nav | Svcs | Stats | Notes
Area around 78NY (Flying F Airport)
 
Road maps at: MapQuest Bing Google
 
Aerial photo
No photo
 
Sectional chart

 
Airport distance calculator
Flying to Flying F Airport? Find the distance to fly.

From to 78NY

Sunrise and sunset
Times for 22-Sep-2020
 Local
(UTC-4)
 Zulu
(UTC)
Morning civil twilight06:3610:36
Sunrise07:0411:04
Sunset19:1123:11
Evening civil twilight19:3923:39

Current date and time
Zulu (UTC)  22-Sep-2020 05:19:28
Local (UTC-4)  22-Sep-2020 01:19:28
 
METAR
KIAG 
7nm W 
220453Z AUTO 00000KT 10SM CLR 08/04 RMK AO2 SLPNO T00830039 402000033 $
KBUF 
9nm S 
220454Z 07003KT 10SM FEW250 09/04 A3035 RMK AO2 SLP278 T00890039 402060061
CYSN 
18nm W 
220100Z 11006KT 15SM FEW250 11/05 A3038 RMK CI1 LAST STFD OBS/NEXT 221100 UTC SLP292
TAF
KIAG 
7nm W 
220241Z 2203/2224 13004KT P6SM SCT250 FM220900 17005KT P6SM SCT250 FM221400 25007KT P6SM SCT250
KBUF 
9nm S 
220241Z 2203/2224 11005KT P6SM SCT250 FM221100 18004KT P6SM SCT250 FM221400 24009KT P6SM SCT250
CYSN 
18nm W 
211939Z 2120/2201 02010KT P6SM FEW100 BECMG 2123/2201 VRB03KT RMK NXT FCST WILL BE ISSUED AT 221245Z
NOTAMs
Click for the latest NOTAMs
NOTAMs are issued by the DoD/FAA and will open in a separate window not controlled by AirNav.

 

 
 

Would you like to see your business listed on this page?

 If your business provides an interesting product or service to pilots, flight crews, aircraft, or users of the Flying F Airport, you should consider listing it here.  To start the listing process, click on the button below
 
Add a business
 

Other Pages about Flying F Airport

Update a link
 
Copyright © AirNav, LLC. All rights reserved. Privacy Policy  Contact